Time;durP1;ratioP1;P1;durP2;ratioP2;P2;SDS_P1;SDS_P2;PMS_P1;PMS_P2;Temp;Humidity;BMP_temperature;BMP_pressure;BME280_temperature;BME280_humidity;BME280_pressure;Samples;Min_cycle;Max_cycle;Signal;HPM_P1;HPM_P2
2023/05/12 00:01:57;;;;;;;9.3;4.2;;;;;;;8.7;69.1;98840;;;;
2023/05/12 00:12:57;;;;;;;10.2;4.5;;;;;;;8.5;70.3;98840;;;;
2023/05/12 00:23:57;;;;;;;10.2;4.5;;;;;;;8.4;72;98840;;;;
2023/05/12 00:33:57;;;;;;;10.2;4.5;;;;;;;8.4;71.9;98840;;;;
2023/05/12 00:43:57;;;;;;;10.6;5.2;;;;;;;8.3;72.1;98840;;;;
2023/05/12 00:53:58;;;;;;;10.6;5.2;;;;;;;8.2;72.2;98850;;;;
2023/05/12 01:04:57;;;;;;;10.6;5.2;;;;;;;8;72.5;98860;;;;
2023/05/12 01:15:57;;;;;;;9.2;4.4;;;;;;;7.9;73.2;98870;;;;
2023/05/12 01:25:58;;;;;;;9.2;4.4;;;;;;;7.8;73;98870;;;;
2023/05/12 01:35:57;;;;;;;8.9;4.5;;;;;;;7.7;73.3;98870;;;;
2023/05/12 01:46:57;;;;;;;8.9;4.5;;;;;;;7.5;72.8;98870;;;;
2023/05/12 01:57:57;;;;;;;8.9;4.5;;;;;;;7.4;74.1;98870;;;;
2023/05/12 02:08:57;;;;;;;7.5;3.9;;;;;;;7.3;73.7;98870;;;;
2023/05/12 02:18:57;;;;;;;7.5;3.9;;;;;;;7.2;74.2;98880;;;;
2023/05/12 02:28:57;;;;;;;7.5;3.9;;;;;;;7.2;74.9;98870;;;;
2023/05/12 02:39:57;;;;;;;6.9;3.7;;;;;;;7.1;75.5;98880;;;;
2023/05/12 02:49:57;;;;;;;6.9;3.7;;;;;;;6.9;75.8;98880;;;;
2023/05/12 02:59:57;;;;;;;6.9;3.7;;;;;;;6.8;76.7;98880;;;;
2023/05/12 03:10:57;;;;;;;9;4;;;;;;;6.7;77;98880;;;;
2023/05/12 03:21:57;;;;;;;9;4;;;;;;;6.7;77.2;98880;;;;
2023/05/12 03:32:57;;;;;;;9;4;;;;;;;6.8;77.8;98880;;;;
2023/05/12 03:43:57;;;;;;;7.1;4.3;;;;;;;6.9;77.9;98880;;;;
2023/05/12 03:54:57;;;;;;;7.1;4.3;;;;;;;7;77.3;98890;;;;
2023/05/12 04:04:57;;;;;;;9.4;4;;;;;;;7.1;77.3;98900;;;;
2023/05/12 04:15:57;;;;;;;9.4;4;;;;;;;7.3;77;98900;;;;
2023/05/12 04:25:57;;;;;;;9.4;4;;;;;;;7.5;76.5;98910;;;;
2023/05/12 04:35:57;;;;;;;9;3.6;;;;;;;7.8;76.5;98910;;;;
2023/05/12 04:45:57;;;;;;;9;3.6;;;;;;;8.2;75.7;98910;;;;
2023/05/12 04:55:57;;;;;;;9;3.6;;;;;;;8.6;74.2;98920;;;;
2023/05/12 05:05:57;;;;;;;9.2;5;;;;;;;8.8;73.7;98930;;;;
2023/05/12 05:16:58;;;;;;;9.2;5;;;;;;;9.1;73.3;98930;;;;
2023/05/12 05:26:58;;;;;;;9.2;5;;;;;;;9.4;72;98940;;;;
2023/05/12 05:36:58;;;;;;;9.2;5;;;;;;;9.5;71.7;98940;;;;
2023/05/12 05:47:57;;;;;;;10.2;5.2;;;;;;;10.1;71.1;98950;;;;
2023/05/12 05:57:58;;;;;;;10.2;5.2;;;;;;;10.4;70.3;98950;;;;
2023/05/12 06:08:58;;;;;;;10.4;5.9;;;;;;;10.9;69;98960;;;;
2023/05/12 06:19:57;;;;;;;10.4;5.9;;;;;;;11.2;68.2;98960;;;;
2023/05/12 06:30:58;;;;;;;10.4;5.9;;;;;;;11.5;68.2;98960;;;;
2023/05/12 06:41:57;;;;;;;12.1;6.3;;;;;;;12;66.9;98960;;;;
2023/05/12 06:51:57;;;;;;;12.1;6.3;;;;;;;12.4;66.6;98970;;;;
2023/05/12 07:02:57;;;;;;;12.1;6.3;;;;;;;13;64.8;98970;;;;
2023/05/12 07:13:57;;;;;;;11.4;5.5;;;;;;;13.4;64.2;98960;;;;
2023/05/12 07:23:58;;;;;;;;;;;;;;;13.6;63.5;98960;;;;
2023/05/12 07:33:57;;;;;;;9.8;7.1;;;;;;;14.2;64.4;98960;;;;
2023/05/12 07:44:57;;;;;;;9.8;7.1;;;;;;;15;61.9;98950;;;;
2023/05/12 07:54:57;;;;;;;9.6;5.5;;;;;;;15.6;59.1;98950;;;;
2023/05/12 08:05:58;;;;;;;9.6;5.5;;;;;;;16.2;57.9;98960;;;;
2023/05/12 08:15:57;;;;;;;9.6;5.5;;;;;;;16.3;55.7;98960;;;;
2023/05/12 08:26:57;;;;;;;8.5;4.1;;;;;;;16.9;55;98940;;;;
2023/05/12 08:36:58;;;;;;;8.5;4.1;;;;;;;17.4;53.6;98950;;;;
2023/05/12 08:47:57;;;;;;;8.5;4.1;;;;;;;17.8;52.2;98940;;;;
2023/05/12 08:58:58;;;;;;;5.6;3;;;;;;;18.2;50.5;98950;;;;
2023/05/12 09:09:57;;;;;;;5.6;3;;;;;;;18.4;48.9;98940;;;;
2023/05/12 09:19:57;;;;;;;5.6;3;;;;;;;18.5;46;98940;;;;
2023/05/12 09:29:58;;;;;;;6.9;2.8;;;;;;;18.7;47.4;98940;;;;
2023/05/12 09:40:57;;;;;;;6.9;2.8;;;;;;;18.8;46.9;98940;;;;
2023/05/12 09:50:58;;;;;;;6.9;2.8;;;;;;;18.6;43.8;98940;;;;
2023/05/12 10:01:57;;;;;;;6.8;3;;;;;;;18.5;42.5;98940;;;;
2023/05/12 10:11:58;;;;;;;6.8;3;;;;;;;18.9;40.1;98940;;;;
2023/05/12 10:21:58;;;;;;;6.8;3;;;;;;;19.3;41;98940;;;;
2023/05/12 10:32:58;;;;;;;5.1;2.3;;;;;;;19.5;41.1;98940;;;;
2023/05/12 10:43:58;;;;;;;5.1;2.3;;;;;;;19.1;41.1;98930;;;;
2023/05/12 10:54:58;;;;;;;5.1;2.2;;;;;;;19.4;40.4;98920;;;;
2023/05/12 11:04:58;;;;;;;5.1;2.2;;;;;;;19.1;40.8;98930;;;;
2023/05/12 11:14:57;;;;;;;5.1;2.2;;;;;;;20.5;42;98930;;;;
2023/05/12 11:24:57;;;;;;;6.7;2.1;;;;;;;20.9;37.3;98920;;;;
2023/05/12 11:34:58;;;;;;;6.7;2.1;;;;;;;20.2;38.8;98920;;;;
2023/05/12 11:45:58;;;;;;;6.7;2.1;;;;;;;20.8;37.4;98930;;;;
2023/05/12 11:55:58;;;;;;;4.3;2.1;;;;;;;20.8;36.5;98920;;;;
2023/05/12 12:05:58;;;;;;;4.3;2.1;;;;;;;20.4;38.8;98930;;;;
2023/05/12 12:16:58;;;;;;;4.3;2.1;;;;;;;20.4;40;98920;;;;
2023/05/12 12:26:58;;;;;;;5.4;2.3;;;;;;;20.5;38.1;98910;;;;
2023/05/12 12:37:58;;;;;;;5.4;2.3;;;;;;;20.4;37.6;98910;;;;
2023/05/12 12:48:58;;;;;;;5.4;2.3;;;;;;;21.5;38.6;98910;;;;
2023/05/12 12:58:58;;;;;;;5.7;2.7;;;;;;;21.1;39.4;98920;;;;
2023/05/12 13:09:58;;;;;;;5.7;2.7;;;;;;;20.4;38.5;98920;;;;
2023/05/12 13:19:58;;;;;;;5.7;2.7;;;;;;;20.2;38.9;98910;;;;
2023/05/12 13:30:58;;;;;;;7.4;2.5;;;;;;;21;39.3;98910;;;;
2023/05/12 13:40:58;;;;;;;7.4;2.5;;;;;;;21.4;38.7;98900;;;;
2023/05/12 13:51:58;;;;;;;7.4;2.5;;;;;;;20.5;37.9;98910;;;;
2023/05/12 14:02:58;;;;;;;5.4;2.5;;;;;;;20.3;40.6;98900;;;;
2023/05/12 14:12:58;;;;;;;5.4;2.5;;;;;;;20.1;39.5;98900;;;;
2023/05/12 14:23:58;;;;;;;5.4;2.5;;;;;;;20.9;39.4;98900;;;;
2023/05/12 14:33:58;;;;;;;5.8;2.6;;;;;;;20.7;38.3;98890;;;;
2023/05/12 14:43:58;;;;;;;5.8;2.6;;;;;;;20.2;37.7;98900;;;;
2023/05/12 14:53:58;;;;;;;5.8;2.6;;;;;;;20.6;36;98900;;;;
2023/05/12 15:03:58;;;;;;;5.8;2.5;;;;;;;20.2;36.2;98900;;;;
2023/05/12 15:14:59;;;;;;;5.8;2.5;;;;;;;19.6;38;98900;;;;
2023/05/12 15:25:58;;;;;;;9.2;5.5;;;;;;;20.1;37.8;98900;;;;
2023/05/12 15:35:58;;;;;;;5;2.6;;;;;;;19.6;38.2;98900;;;;
2023/05/12 15:46:58;;;;;;;7;2.7;;;;;;;19.6;37.7;98910;;;;
2023/05/12 15:57:58;;;;;;;7;2.7;;;;;;;19.3;38.9;98900;;;;
2023/05/12 16:07:58;;;;;;;7;2.7;;;;;;;19.3;39.4;98900;;;;
2023/05/12 16:17:58;;;;;;;6.1;3.1;;;;;;;19.1;40.7;98910;;;;
2023/05/12 16:28:58;;;;;;;6.1;3.1;;;;;;;19;39.8;98920;;;;
2023/05/12 16:38:58;;;;;;;6.1;3.1;;;;;;;19;40.1;98930;;;;
2023/05/12 16:49:58;;;;;;;7.4;3.3;;;;;;;18.7;40.3;98930;;;;
2023/05/12 16:59:58;;;;;;;7.4;3.3;;;;;;;18.2;41.1;98940;;;;
2023/05/12 17:10:58;;;;;;;7.4;3.3;;;;;;;17.7;41.9;98940;;;;
2023/05/12 17:20:58;;;;;;;6.9;2.9;;;;;;;17.2;42.3;98950;;;;
2023/05/12 17:31:58;;;;;;;6.9;2.9;;;;;;;16.9;43.5;98950;;;;
2023/05/12 17:42:58;;;;;;;6.9;2.9;;;;;;;16.5;44.7;98960;;;;
2023/05/12 17:53:58;;;;;;;7.5;4.1;;;;;;;16.2;45.4;98970;;;;
2023/05/12 18:03:58;;;;;;;7.5;4.1;;;;;;;15.8;47.1;98980;;;;
2023/05/12 18:14:00;;;;;;;7.5;4.1;;;;;;;15.5;48;98980;;;;
2023/05/12 18:23:58;;;;;;;10.3;5.1;;;;;;;15.3;48.7;98990;;;;
2023/05/12 18:33:58;;;;;;;10.3;5.1;;;;;;;15;49.6;99000;;;;
2023/05/12 18:44:58;;;;;;;11.7;7.7;;;;;;;14.7;50.4;99010;;;;
2023/05/12 18:55:58;;;;;;;11.7;7.7;;;;;;;14.4;51.2;99020;;;;
2023/05/12 19:06:58;;;;;;;11.7;7.7;;;;;;;14.1;52.4;99020;;;;
2023/05/12 19:16:58;;;;;;;14.9;7.9;;;;;;;13.9;52.5;99030;;;;
2023/05/12 19:27:58;;;;;;;14.9;7.9;;;;;;;13.9;52.9;99030;;;;
2023/05/12 19:37:58;;;;;;;14.9;7.9;;;;;;;13.8;53.3;99040;;;;
2023/05/12 19:48:58;;;;;;;17.3;10.7;;;;;;;13.7;53.4;99040;;;;
2023/05/12 19:59:58;;;;;;;17.3;10.7;;;;;;;13.6;53.7;99040;;;;
2023/05/12 20:09:59;;;;;;;17.3;10.7;;;;;;;13.5;54.1;99050;;;;
2023/05/12 20:20:58;;;;;;;;;;;;;;;13.3;54.3;99050;;;;
2023/05/12 20:30:58;;;;;;;14;7.3;;;;;;;13.3;54.5;99050;;;;
2023/05/12 20:40:58;;;;;;;14;7.3;;;;;;;13.2;55;99040;;;;
2023/05/12 20:51:58;;;;;;;14;7.3;;;;;;;13;55.4;99040;;;;
2023/05/12 21:01:58;;;;;;;10.7;6.3;;;;;;;12.9;55.6;99040;;;;
2023/05/12 21:11:58;;;;;;;;;;;;;;;12.7;56.4;99060;;;;
2023/05/12 21:22:58;;;;;;;;;;;;;;;12.6;57;99060;;;;
2023/05/12 21:33:58;;;;;;;;;;;;;;;12.3;57.7;99060;;;;
2023/05/12 21:44:58;;;;;;;10.1;6.2;;;;;;;12;57.9;99060;;;;
2023/05/12 21:55:58;;;;;;;10.1;6.2;;;;;;;11.7;59.8;99070;;;;
2023/05/12 22:05:58;;;;;;;9.3;4.9;;;;;;;11.5;61.2;99070;;;;
2023/05/12 22:16:58;;;;;;;9.3;4.9;;;;;;;11.4;61.4;99070;;;;
2023/05/12 22:26:58;;;;;;;9.3;4.9;;;;;;;11.2;61;99070;;;;
2023/05/12 22:36:58;;;;;;;11.5;7.3;;;;;;;11.1;61.7;99070;;;;
2023/05/12 22:46:58;;;;;;;11.5;7.3;;;;;;;11.1;62.5;99070;;;;
2023/05/12 22:57:58;;;;;;;11.5;7.3;;;;;;;10.9;63.2;99100;;;;
2023/05/12 23:08:58;;;;;;;7.7;4;;;;;;;10.9;62.8;99100;;;;
2023/05/12 23:18:58;;;;;;;7.7;4;;;;;;;10.6;63.6;99100;;;;
2023/05/12 23:29:58;;;;;;;7.7;4;;;;;;;10.2;64.6;99090;;;;
2023/05/12 23:39:58;;;;;;;8.7;4.7;;;;;;;9.8;66;99090;;;;
2023/05/12 23:50:58;;;;;;;8.7;4.7;;;;;;;9.3;67.3;99080;;;;
